Time;durP1;ratioP1;P1;durP2;ratioP2;P2;SDS_P1;SDS_P2;PMS_P1;PMS_P2;Temp;Humidity;BMP_temperature;BMP_pressure;BME280_temperature;BME280_humidity;BME280_pressure;Samples;Min_cycle;Max_cycle;Signal;HPM_P1;HPM_P2
2023/04/15 00:01:22;;;;;;;6.63;4.93;;;12.40;53.40;;;;;;5069891;28;21044;-84
2023/04/15 00:03:53;;;;;;;8.33;5.60;;;12.40;53.20;;;;;;5070801;28;20447;-83
2023/04/15 00:06:20;;;;;;;8.77;6.00;;;12.50;53.30;;;;;;5089768;28;20444;-83
2023/04/15 00:08:47;;;;;;;7.13;5.37;;;12.40;53.10;;;;;;5061165;28;20838;-85
2023/04/15 00:11:15;;;;;;;6.47;4.93;;;12.40;53.20;;;;;;5089038;27;20478;-84
2023/04/15 00:13:42;;;;;;;8.63;4.80;;;12.30;53.60;;;;;;5046620;28;20462;-87
2023/04/15 00:16:10;;;;;;;6.77;4.90;;;12.20;53.60;;;;;;5094029;27;20466;-83
2023/04/15 00:18:37;;;;;;;8.03;4.57;;;12.20;53.60;;;;;;5092706;28;20599;-85
2023/04/15 00:21:06;;;;;;;9.20;5.60;;;12.20;53.40;;;;;;5094105;27;20548;-84
2023/04/15 00:23:33;;;;;;;16.37;5.93;;;12.30;53.40;;;;;;5063301;27;20448;-84
2023/04/15 00:26:00;;;;;;;10.23;5.33;;;12.20;53.10;;;;;;5072718;28;20465;-83
2023/04/15 00:28:27;;;;;;;7.40;5.00;;;12.20;53.00;;;;;;5093321;27;20454;-86
2023/04/15 00:30:55;;;;;;;8.40;5.57;;;12.20;53.10;;;;;;5081177;28;20478;-84
2023/04/15 00:33:22;;;;;;;10.47;5.67;;;12.20;53.00;;;;;;5059186;28;20524;-85
2023/04/15 00:35:49;;;;;;;9.00;5.40;;;12.10;53.10;;;;;;5059574;28;20486;-84
2023/04/15 00:38:19;;;;;;;8.30;5.20;;;12.10;53.70;;;;;;5090926;27;20451;-84
2023/04/15 00:40:46;;;;;;;6.33;5.10;;;12.00;53.20;;;;;;5089985;28;20960;-84
2023/04/15 00:43:13;;;;;;;6.20;4.60;;;11.40;54.40;;;;;;5105894;27;20547;-84
2023/04/15 00:45:41;;;;;;;5.70;4.43;;;11.30;54.30;;;;;;5079575;28;20443;-84
2023/04/15 00:48:08;;;;;;;6.37;4.60;;;11.20;54.60;;;;;;5092035;27;20447;-84
2023/04/15 00:50:35;;;;;;;5.63;3.93;;;11.20;54.20;;;;;;5072661;27;20462;-84
2023/04/15 00:53:02;;;;;;;4.50;4.10;;;11.10;55.10;;;;;;5059781;28;20467;-84
2023/04/15 00:55:31;;;;;;;4.83;4.43;;;11.30;55.20;;;;;;5085541;28;20450;-84
2023/04/15 00:57:58;;;;;;;5.17;4.67;;;11.40;54.70;;;;;;5081326;28;20455;-85
2023/04/15 01:00:25;;;;;;;4.40;3.93;;;11.10;55.00;;;;;;5090493;28;20472;-84
2023/04/15 01:02:52;;;;;;;5.27;4.30;;;11.10;54.30;;;;;;5071416;28;20468;-85
2023/04/15 01:05:20;;;;;;;8.67;4.87;;;11.20;54.30;;;;;;5060430;27;20482;-84
2023/04/15 01:07:47;;;;;;;7.63;5.10;;;11.30;55.00;;;;;;5075943;28;20459;-84
2023/04/15 01:10:15;;;;;;;10.10;5.70;;;11.40;54.60;;;;;;5070462;28;20470;-85
2023/04/15 01:12:45;;;;;;;9.03;5.23;;;11.50;54.70;;;;;;5088005;28;20571;-85
2023/04/15 01:15:12;;;;;;;4.53;4.13;;;11.60;54.80;;;;;;5091815;28;20920;-83
2023/04/15 01:17:39;;;;;;;6.17;4.80;;;11.60;55.00;;;;;;5086788;27;21240;-84
2023/04/15 01:20:10;;;;;;;7.43;4.07;;;11.60;55.50;;;;;;5080827;28;20461;-85
2023/04/15 01:22:39;;;;;;;6.93;5.00;;;11.70;54.50;;;;;;5088697;28;20570;-83
2023/04/15 01:25:12;;;;;;;5.70;4.60;;;11.60;54.60;;;;;;5074991;28;20543;-83
2023/04/15 01:27:42;;;;;;;7.20;4.90;;;11.50;54.80;;;;;;5086761;27;20451;-85
2023/04/15 01:30:11;;;;;;;4.93;4.47;;;11.50;54.90;;;;;;5081009;28;20999;-85
2023/04/15 01:32:38;;;;;;;4.80;4.13;;;11.70;54.60;;;;;;5093662;27;20841;-85
2023/04/15 01:35:24;;;;;;;7.73;4.50;;;11.80;54.50;;;;;;5077920;28;20510;-85
2023/04/15 01:37:51;;;;;;;5.30;4.80;;;11.80;54.60;;;;;;5071100;28;20445;-86
2023/04/15 01:40:19;;;;;;;6.60;4.57;;;11.80;54.60;;;;;;5090699;28;20444;-84
2023/04/15 01:42:47;;;;;;;9.33;4.53;;;11.90;54.80;;;;;;5078166;28;20468;-85
2023/04/15 01:45:16;;;;;;;5.90;4.47;;;11.80;54.40;;;;;;5075052;28;20463;-86
2023/04/15 01:47:43;;;;;;;10.00;4.67;;;11.80;54.60;;;;;;5090393;28;20447;-83
2023/04/15 01:50:10;;;;;;;5.10;4.27;;;11.80;54.70;;;;;;5092531;28;20467;-85
2023/04/15 01:52:37;;;;;;;6.00;4.50;;;11.80;54.60;;;;;;5070771;28;20539;-84
2023/04/15 01:55:06;;;;;;;5.33;4.10;;;11.80;54.90;;;;;;5093218;28;20532;-84
2023/04/15 01:57:33;;;;;;;6.23;4.67;;;11.70;54.80;;;;;;5079817;28;20452;-84
2023/04/15 02:00:02;;;;;;;5.63;4.37;;;11.70;55.10;;;;;;5092460;28;20453;-85
2023/04/15 02:02:40;;;;;;;4.00;3.57;;;11.60;55.20;;;;;;5090497;28;20552;-85
2023/04/15 02:05:08;;;;;;;5.50;4.20;;;11.60;55.50;;;;;;5109262;27;20460;-85
2023/04/15 02:07:37;;;;;;;6.73;4.40;;;11.50;55.70;;;;;;5071697;28;20533;-86
2023/04/15 02:10:05;;;;;;;9.50;4.03;;;11.50;55.60;;;;;;5058171;28;20983;-85
2023/04/15 02:12:32;;;;;;;5.93;4.20;;;11.40;55.80;;;;;;5088131;28;20471;-83
2023/04/15 02:14:59;;;;;;;11.33;3.57;;;11.50;55.80;;;;;;5075478;28;20438;-85
2023/04/15 02:17:27;;;;;;;5.03;3.67;;;11.50;55.80;;;;;;5096955;27;20459;-84
2023/04/15 02:19:56;;;;;;;8.63;4.13;;;11.60;55.80;;;;;;5066634;28;20451;-85
2023/04/15 02:22:25;;;;;;;4.50;3.60;;;11.60;55.50;;;;;;5097415;27;20474;-84
2023/04/15 02:24:52;;;;;;;3.97;3.53;;;11.70;55.30;;;;;;5095070;28;20485;-84
2023/04/15 02:27:19;;;;;;;6.13;3.23;;;11.70;54.90;;;;;;5077443;28;20530;-84
2023/04/15 02:29:46;;;;;;;5.17;3.87;;;11.70;54.80;;;;;;5091385;28;20985;-85
2023/04/15 02:32:13;;;;;;;6.00;4.10;;;11.70;55.00;;;;;;5092052;28;20468;-86
2023/04/15 02:34:42;;;;;;;6.07;3.60;;;11.70;55.10;;;;;;5075455;28;20557;-84
2023/04/15 02:37:11;;;;;;;4.23;3.83;;;11.80;54.90;;;;;;5109600;27;20455;-84
2023/04/15 02:39:38;;;;;;;4.70;4.00;;;11.60;55.10;;;;;;5094611;27;20471;-85
2023/04/15 02:42:06;;;;;;;6.43;4.03;;;11.60;55.10;;;;;;5096783;27;20501;-88
2023/04/15 02:44:35;;;;;;;6.40;4.17;;;11.60;55.00;;;;;;5092016;28;20447;-85
2023/04/15 02:47:05;;;;;;;5.80;4.00;;;11.60;54.90;;;;;;5075798;28;20939;-84
2023/04/15 02:49:32;;;;;;;6.43;3.93;;;11.60;55.10;;;;;;5073237;27;20450;-84
2023/04/15 02:52:02;;;;;;;4.80;4.30;;;11.60;55.00;;;;;;5079091;28;20498;-83
2023/04/15 02:54:29;;;;;;;5.20;4.63;;;11.60;55.00;;;;;;5076950;27;20448;-85
2023/04/15 02:56:57;;;;;;;4.70;4.20;;;11.60;54.90;;;;;;5085944;28;20439;-85
2023/04/15 02:59:24;;;;;;;5.53;4.67;;;11.70;54.70;;;;;;5092033;27;20440;-85
2023/04/15 03:01:51;;;;;;;5.90;4.30;;;11.70;54.70;;;;;;5109521;27;21239;-86
2023/04/15 03:04:18;;;;;;;5.83;3.97;;;11.70;54.60;;;;;;5071065;28;20446;-86
2023/04/15 03:06:45;;;;;;;4.43;3.90;;;11.70;54.80;;;;;;5093317;27;20448;-86
2023/04/15 03:09:13;;;;;;;4.70;4.20;;;11.60;55.00;;;;;;5084146;28;20485;-84
2023/04/15 03:11:41;;;;;;;4.97;4.13;;;11.70;54.90;;;;;;5089033;28;20870;-85
2023/04/15 03:14:10;;;;;;;4.90;4.30;;;11.60;54.80;;;;;;5058840;28;20976;-85
2023/04/15 03:16:41;;;;;;;10.53;4.80;;;11.60;54.70;;;;;;5073753;28;20454;-84
2023/04/15 03:19:08;;;;;;;4.57;4.17;;;11.60;54.60;;;;;;5108120;27;20468;-84
2023/04/15 03:21:35;;;;;;;5.47;4.53;;;11.60;54.50;;;;;;5084160;28;20869;-86
2023/04/15 03:24:02;;;;;;;6.97;4.60;;;11.60;54.40;;;;;;5092326;27;20455;-86
2023/04/15 03:26:32;;;;;;;8.97;5.20;;;11.60;54.70;;;;;;5075714;28;20483;-85
2023/04/15 03:29:02;;;;;;;6.40;4.20;;;11.50;54.60;;;;;;5096637;27;21031;-83
2023/04/15 03:31:29;;;;;;;6.20;4.30;;;11.60;54.50;;;;;;5059620;28;20483;-84
2023/04/15 03:33:56;;;;;;;6.53;4.50;;;11.60;54.30;;;;;;5095124;28;21261;-86
2023/04/15 03:36:24;;;;;;;7.00;5.40;;;11.60;54.20;;;;;;5077551;28;20482;-84
2023/04/15 03:38:51;;;;;;;8.70;6.23;;;11.50;54.10;;;;;;5104611;27;20465;-83
2023/04/15 03:41:18;;;;;;;7.30;4.83;;;11.50;54.30;;;;;;5060152;28;20467;-85
2023/04/15 03:43:47;;;;;;;4.93;4.13;;;11.40;54.20;;;;;;5074308;27;20697;-84
2023/04/15 03:46:14;;;;;;;6.07;5.10;;;11.20;54.90;;;;;;5095756;28;20448;-85
2023/04/15 03:48:41;;;;;;;7.20;4.97;;;11.20;54.70;;;;;;5083116;28;20975;-84
2023/04/15 03:51:08;;;;;;;6.30;5.30;;;11.20;54.80;;;;;;5093410;27;20470;-85
2023/04/15 03:53:35;;;;;;;7.03;4.90;;;11.30;55.00;;;;;;5089935;27;20483;-83
2023/04/15 03:56:02;;;;;;;6.57;4.50;;;11.30;54.80;;;;;;5074107;28;20444;-87
2023/04/15 03:58:29;;;;;;;6.00;5.20;;;11.30;54.70;;;;;;5083421;28;20492;-83
2023/04/15 04:00:58;;;;;;;5.30;4.73;;;11.30;54.50;;;;;;5088970;27;20467;-86
2023/04/15 04:03:25;;;;;;;5.83;4.40;;;11.40;54.50;;;;;;5075165;28;20451;-85
2023/04/15 04:05:53;;;;;;;6.00;4.70;;;11.40;54.50;;;;;;5069087;28;22119;-85
2023/04/15 04:08:20;;;;;;;5.87;4.63;;;11.40;54.50;;;;;;5089841;27;20453;-84
2023/04/15 04:10:47;;;;;;;5.57;4.50;;;11.40;54.60;;;;;;5088810;28;20463;-84
2023/04/15 04:13:15;;;;;;;5.20;4.00;;;11.40;54.50;;;;;;5091095;27;20479;-85
2023/04/15 04:15:42;;;;;;;6.77;4.77;;;11.40;54.30;;;;;;5070353;28;20443;-84
2023/04/15 04:18:10;;;;;;;7.20;4.57;;;11.40;54.60;;;;;;5072762;28;20435;-84
2023/04/15 04:20:37;;;;;;;6.87;4.63;;;11.10;54.90;;;;;;5107155;27;20443;-85
2023/04/15 04:23:04;;;;;;;7.63;4.43;;;11.20;55.00;;;;;;5106860;27;20546;-85
2023/04/15 04:25:31;;;;;;;6.60;4.90;;;11.30;55.10;;;;;;5093929;27;20508;-85
2023/04/15 04:27:59;;;;;;;6.87;4.70;;;11.20;55.20;;;;;;5093392;28;20445;-84
2023/04/15 04:30:26;;;;;;;5.47;3.90;;;11.20;55.30;;;;;;5091114;28;20443;-83
2023/04/15 04:32:53;;;;;;;6.20;4.87;;;11.20;55.20;;;;;;5090683;28;20563;-84
2023/04/15 04:35:21;;;;;;;8.20;5.23;;;11.10;55.70;;;;;;5075400;28;20451;-85
2023/04/15 04:37:49;;;;;;;10.87;5.80;;;11.00;55.90;;;;;;5088625;28;20449;-87
2023/04/15 04:40:16;;;;;;;7.37;5.23;;;11.00;55.90;;;;;;5089787;28;21086;-84
2023/04/15 04:42:43;;;;;;;6.20;4.20;;;11.10;55.70;;;;;;5076916;27;20553;-85
2023/04/15 04:45:11;;;;;;;6.20;4.67;;;11.20;55.60;;;;;;5075489;28;20463;-85
2023/04/15 04:47:38;;;;;;;11.30;5.50;;;11.20;55.30;;;;;;5071129;28;20450;-84
2023/04/15 04:50:06;;;;;;;5.90;5.30;;;11.20;54.90;;;;;;5070842;28;20972;-84
2023/04/15 04:52:35;;;;;;;8.40;5.03;;;11.10;55.10;;;;;;5088468;27;20480;-85
2023/04/15 04:55:02;;;;;;;9.17;6.00;;;11.00;55.70;;;;;;5094837;27;20456;-84
2023/04/15 04:57:29;;;;;;;8.43;6.13;;;11.10;55.70;;;;;;5060786;28;20443;-85
2023/04/15 04:59:56;;;;;;;14.10;9.67;;;11.10;55.50;;;;;;5092550;28;20462;-84
2023/04/15 05:02:25;;;;;;;8.37;6.37;;;11.10;55.60;;;;;;5109691;27;20507;-84
2023/04/15 05:04:54;;;;;;;24.43;15.73;;;11.10;55.30;;;;;;5075051;28;20571;-84
2023/04/15 05:07:21;;;;;;;19.20;14.00;;;11.00;55.70;;;;;;5092258;27;20542;-86
2023/04/15 05:09:49;;;;;;;15.33;10.50;;;11.10;55.90;;;;;;5074454;27;20454;-84
2023/04/15 05:12:17;;;;;;;15.60;10.73;;;11.10;55.80;;;;;;5091666;27;20524;-86
2023/04/15 05:14:45;;;;;;;27.63;18.97;;;11.20;55.60;;;;;;5081256;28;20884;-84
2023/04/15 05:17:12;;;;;;;32.97;21.40;;;11.30;55.60;;;;;;5092797;27;20453;-84
2023/04/15 05:19:40;;;;;;;26.73;17.70;;;11.30;55.60;;;;;;5069340;28;20448;-84
2023/04/15 05:22:07;;;;;;;11.87;8.07;;;11.40;55.80;;;;;;5091048;27;20467;-83
2023/04/15 05:24:34;;;;;;;13.87;7.30;;;11.40;55.50;;;;;;5074817;28;20431;-84
2023/04/15 05:27:02;;;;;;;10.20;6.97;;;11.40;55.70;;;;;;5092434;28;20499;-84
2023/04/15 05:29:29;;;;;;;13.33;6.87;;;11.40;55.70;;;;;;5093568;28;21016;-84
2023/04/15 05:31:56;;;;;;;10.43;6.37;;;11.40;55.40;;;;;;5092073;28;20507;-83
2023/04/15 05:34:23;;;;;;;7.60;5.27;;;11.40;55.70;;;;;;5090858;28;20447;-82
2023/04/15 05:36:51;;;;;;;6.13;5.60;;;11.50;55.90;;;;;;5089377;28;20510;-85
2023/04/15 05:39:18;;;;;;;6.20;5.33;;;11.50;56.00;;;;;;5090287;28;20446;-84
2023/04/15 05:41:45;;;;;;;6.13;4.53;;;11.50;56.30;;;;;;5074587;28;20458;-84
2023/04/15 05:44:13;;;;;;;5.73;4.83;;;11.40;56.10;;;;;;5074757;28;20811;-85
2023/04/15 05:46:41;;;;;;;7.57;5.97;;;11.50;56.40;;;;;;5089472;28;20813;-85
2023/04/15 05:49:08;;;;;;;7.20;5.10;;;11.50;56.10;;;;;;5089424;28;21016;-86
2023/04/15 05:51:35;;;;;;;9.10;4.80;;;11.60;55.80;;;;;;5069636;28;20545;-85
2023/04/15 05:54:02;;;;;;;11.73;6.30;;;11.60;55.80;;;;;;5092818;28;20484;-84
2023/04/15 05:56:29;;;;;;;11.27;6.83;;;11.70;55.90;;;;;;5090499;28;20535;-84
2023/04/15 05:58:56;;;;;;;7.00;5.33;;;11.60;56.10;;;;;;5092516;28;20446;-85
2023/04/15 06:01:24;;;;;;;11.93;8.20;;;11.50;56.60;;;;;;5106668;28;20458;-86
2023/04/15 06:03:51;;;;;;;11.67;7.40;;;11.70;56.60;;;;;;5092035;28;20450;-83
2023/04/15 06:06:19;;;;;;;13.73;7.53;;;11.70;56.30;;;;;;5072301;28;20991;-85
2023/04/15 06:08:46;;;;;;;8.33;6.33;;;11.70;56.30;;;;;;5080354;28;20456;-84
2023/04/15 06:11:13;;;;;;;8.27;6.60;;;11.80;56.30;;;;;;5066353;28;20467;-85
2023/04/15 06:13:40;;;;;;;10.37;5.40;;;11.80;56.50;;;;;;5089097;28;20459;-84
2023/04/15 06:16:07;;;;;;;8.70;4.80;;;11.80;55.90;;;;;;5091356;28;20456;-85
2023/04/15 06:18:36;;;;;;;7.00;4.73;;;11.60;56.10;;;;;;5071491;28;20952;-85
2023/04/15 06:21:03;;;;;;;8.83;6.17;;;11.30;57.20;;;;;;5072776;28;20455;-85
2023/04/15 06:23:30;;;;;;;8.13;5.37;;;11.30;57.50;;;;;;5091744;28;20443;-84
2023/04/15 06:25:57;;;;;;;8.60;6.03;;;11.40;57.30;;;;;;5071970;28;20435;-85
2023/04/15 06:28:24;;;;;;;4.73;4.30;;;11.60;57.00;;;;;;5092345;28;20439;-86
2023/04/15 06:30:51;;;;;;;6.37;4.30;;;11.70;56.70;;;;;;5094119;28;20469;-85
2023/04/15 06:33:18;;;;;;;6.00;4.77;;;11.80;56.60;;;;;;5068371;28;20587;-84
2023/04/15 06:35:48;;;;;;;6.67;4.87;;;11.50;56.80;;;;;;5081014;28;20454;-85
2023/04/15 06:38:15;;;;;;;7.00;5.50;;;11.70;57.40;;;;;;5092021;28;20496;-85
2023/04/15 06:40:42;;;;;;;8.27;5.23;;;11.60;57.20;;;;;;5069293;28;20479;-88
2023/04/15 06:43:09;;;;;;;8.90;5.53;;;11.40;57.80;;;;;;5091266;28;20468;-86
2023/04/15 06:45:37;;;;;;;5.97;4.87;;;11.40;57.90;;;;;;5082249;28;20562;-87
2023/04/15 06:48:04;;;;;;;6.40;5.17;;;11.40;58.20;;;;;;5092616;28;20818;-84
2023/04/15 06:50:31;;;;;;;7.90;5.27;;;11.50;57.80;;;;;;5091442;28;20525;-84
2023/04/15 06:53:00;;;;;;;6.73;5.07;;;11.50;58.00;;;;;;5090347;28;20545;-85
2023/04/15 06:55:27;;;;;;;6.43;5.57;;;11.20;58.20;;;;;;5088743;28;20448;-86
2023/04/15 06:57:54;;;;;;;8.20;5.70;;;11.40;58.50;;;;;;5090119;28;20455;-85
2023/04/15 07:00:21;;;;;;;6.57;5.23;;;11.50;58.40;;;;;;5090270;28;20458;-86
2023/04/15 07:02:48;;;;;;;13.00;8.33;;;11.70;58.00;;;;;;5066297;27;20472;-84
2023/04/15 07:05:15;;;;;;;15.17;9.73;;;12.00;57.50;;;;;;5094430;28;20487;-84
2023/04/15 07:07:42;;;;;;;13.80;8.93;;;12.20;57.40;;;;;;5091344;27;20451;-85
2023/04/15 07:10:11;;;;;;;14.13;7.80;;;12.20;57.00;;;;;;5090740;27;20447;-84
2023/04/15 07:12:38;;;;;;;9.40;8.20;;;12.10;57.20;;;;;;5089748;27;20490;-84
2023/04/15 07:15:07;;;;;;;11.40;7.10;;;12.00;57.40;;;;;;5090501;27;20478;-84
2023/04/15 07:17:34;;;;;;;8.90;7.13;;;11.70;57.50;;;;;;5091807;27;20807;-86
2023/04/15 07:20:03;;;;;;;11.50;8.30;;;11.70;58.20;;;;;;5095034;27;20534;-85
2023/04/15 07:22:30;;;;;;;9.90;6.97;;;11.70;58.20;;;;;;5093438;28;20484;-83
2023/04/15 07:24:57;;;;;;;6.23;5.70;;;11.70;58.30;;;;;;5092227;28;20552;-85
2023/04/15 07:27:26;;;;;;;10.63;7.00;;;12.00;58.30;;;;;;5075467;28;20458;-85
2023/04/15 07:29:53;;;;;;;7.13;6.43;;;12.20;57.60;;;;;;5055692;28;20451;-84
2023/04/15 07:32:20;;;;;;;6.23;5.30;;;12.30;57.30;;;;;;5089274;28;20599;-85
2023/04/15 07:34:47;;;;;;;8.47;6.27;;;12.50;57.70;;;;;;5088869;27;21011;-85
2023/04/15 07:37:15;;;;;;;9.10;5.97;;;12.60;56.90;;;;;;5073965;28;20452;-84
2023/04/15 07:39:42;;;;;;;7.47;5.30;;;12.50;56.80;;;;;;5090614;27;20446;-84
2023/04/15 07:42:10;;;;;;;6.13;5.40;;;12.50;57.00;;;;;;5073002;28;20546;-84
2023/04/15 07:44:38;;;;;;;7.50;5.60;;;12.30;57.10;;;;;;5106247;27;21053;-84
2023/04/15 07:47:05;;;;;;;6.50;5.50;;;12.30;57.20;;;;;;5073617;28;20458;-83
2023/04/15 07:49:33;;;;;;;9.40;5.50;;;12.40;57.40;;;;;;5092104;27;20454;-84
2023/04/15 07:52:00;;;;;;;6.43;5.47;;;12.60;57.10;;;;;;5091551;28;20542;-85
2023/04/15 07:54:27;;;;;;;6.70;5.27;;;12.70;56.70;;;;;;5072044;28;20440;-85
2023/04/15 07:56:54;;;;;;;7.00;5.40;;;12.80;56.60;;;;;;5087579;27;20451;-85
2023/04/15 07:59:22;;;;;;;6.47;5.87;;;12.90;56.10;;;;;;5073770;28;20496;-85
2023/04/15 08:01:50;;;;;;;7.90;6.67;;;13.00;56.00;;;;;;5088247;28;20467;-84
2023/04/15 08:04:17;;;;;;;10.13;8.50;;;13.20;56.10;;;;;;5092075;28;20455;-85
2023/04/15 08:06:44;;;;;;;9.70;6.90;;;13.40;55.40;;;;;;5089369;28;20495;-84
2023/04/15 08:09:11;;;;;;;6.17;5.50;;;13.50;55.20;;;;;;5090484;27;20452;-85
2023/04/15 08:11:39;;;;;;;9.13;6.00;;;13.40;55.20;;;;;;5090499;27;20494;-84
2023/04/15 08:14:06;;;;;;;10.37;5.40;;;13.40;55.20;;;;;;5070542;28;20985;-85
2023/04/15 08:16:33;;;;;;;10.00;6.00;;;13.50;55.70;;;;;;5091171;28;20455;-84
2023/04/15 08:19:02;;;;;;;13.20;7.70;;;13.50;55.80;;;;;;5089747;27;20456;-85
2023/04/15 08:21:29;;;;;;;21.03;8.40;;;13.60;55.50;;;;;;5089777;28;20571;-86
2023/04/15 08:23:57;;;;;;;14.70;8.80;;;13.80;55.50;;;;;;5086886;28;20447;-85
2023/04/15 08:26:24;;;;;;;13.40;7.87;;;13.90;55.20;;;;;;5090719;28;20533;-85
2023/04/15 08:28:51;;;;;;;12.53;6.87;;;14.20;54.60;;;;;;5087818;28;20512;-85
2023/04/15 08:31:19;;;;;;;8.70;6.13;;;14.20;54.40;;;;;;5090972;28;20466;-86
2023/04/15 08:33:46;;;;;;;5.77;4.40;;;14.30;54.70;;;;;;5086692;27;20513;-85
2023/04/15 08:36:14;;;;;;;6.60;5.20;;;14.60;53.80;;;;;;5088659;28;20546;-84
2023/04/15 08:38:41;;;;;;;9.00;5.60;;;14.80;52.70;;;;;;5086941;28;20482;-84
2023/04/15 08:41:18;;;;;;;8.53;5.40;;;14.90;52.50;;;;;;5088504;28;20571;-84
2023/04/15 08:43:52;;;;;;;7.00;5.20;;;14.80;52.00;;;;;;5087752;28;20444;-85
2023/04/15 08:46:20;;;;;;;6.30;4.50;;;14.90;52.10;;;;;;5086748;28;20466;-84
2023/04/15 08:48:48;;;;;;;6.37;4.30;;;15.10;51.60;;;;;;5077480;27;20525;-85
2023/04/15 08:51:17;;;;;;;7.80;4.43;;;15.00;50.60;;;;;;5090923;27;20474;-87
2023/04/15 08:53:46;;;;;;;5.63;4.40;;;15.10;50.40;;;;;;5084765;28;20485;-85
2023/04/15 08:56:15;;;;;;;6.93;4.27;;;15.00;49.50;;;;;;5088945;28;20483;-85
2023/04/15 08:58:43;;;;;;;4.97;4.10;;;14.60;50.50;;;;;;5086976;28;20443;-84
2023/04/15 09:01:12;;;;;;;7.00;3.80;;;14.50;49.90;;;;;;5088048;28;20640;-86
2023/04/15 09:03:39;;;;;;;8.13;3.40;;;14.10;49.50;;;;;;5084525;28;20440;-85
2023/04/15 09:06:07;;;;;;;7.10;4.47;;;14.30;50.40;;;;;;5087656;28;20447;-85
2023/04/15 09:08:35;;;;;;;5.00;3.10;;;14.60;50.40;;;;;;5087036;28;20451;-85
2023/04/15 09:11:02;;;;;;;5.27;3.07;;;14.90;50.10;;;;;;5102435;27;20458;-85
2023/04/15 09:13:30;;;;;;;3.27;2.90;;;14.90;48.40;;;;;;5084864;28;21487;-85
2023/04/15 09:15:57;;;;;;;2.90;2.00;;;14.80;46.70;;;;;;5069072;28;20472;-84
2023/04/15 09:18:29;;;;;;;6.60;2.40;;;14.70;45.40;;;;;;5071148;28;20458;-85
2023/04/15 09:20:56;;;;;;;2.87;2.40;;;14.70;45.80;;;;;;5086443;28;20485;-84
2023/04/15 09:23:23;;;;;;;3.50;2.00;;;14.90;46.80;;;;;;5089167;28;20447;-85
2023/04/15 09:25:52;;;;;;;5.00;2.50;;;14.90;45.20;;;;;;5084148;28;20448;-85
2023/04/15 09:28:25;;;;;;;7.43;2.70;;;14.80;45.60;;;;;;5084517;28;20439;-85
2023/04/15 09:30:56;;;;;;;2.20;2.00;;;14.90;45.40;;;;;;5083512;28;20446;-84
2023/04/15 09:33:25;;;;;;;2.33;2.13;;;14.80;44.70;;;;;;5084957;28;20483;-84
2023/04/15 09:36:00;;;;;;;2.33;1.43;;;14.60;45.20;;;;;;5084995;28;20451;-84
2023/04/15 09:38:27;;;;;;;5.00;1.70;;;14.70;45.30;;;;;;5086602;28;20505;-84
2023/04/15 09:40:56;;;;;;;2.50;1.70;;;14.80;45.40;;;;;;5081727;28;20511;-85
2023/04/15 09:43:24;;;;;;;3.20;2.20;;;15.00;45.70;;;;;;5087253;28;20523;-84
2023/04/15 09:45:52;;;;;;;2.40;2.20;;;15.20;44.50;;;;;;5084595;28;20503;-84
2023/04/15 09:48:21;;;;;;;2.10;1.90;;;15.10;44.70;;;;;;5087894;28;20456;-85
2023/04/15 09:50:49;;;;;;;2.50;1.73;;;15.10;44.30;;;;;;5082785;28;20533;-85
2023/04/15 09:53:18;;;;;;;1.57;1.47;;;14.90;44.90;;;;;;5087965;28;20575;-85
2023/04/15 09:55:49;;;;;;;1.60;1.50;;;14.90;45.70;;;;;;5083523;28;20457;-85
2023/04/15 09:58:22;;;;;;;2.13;1.60;;;15.00;44.90;;;;;;5084041;28;20462;-85
2023/04/15 10:00:51;;;;;;;1.53;1.40;;;15.10;45.00;;;;;;5049669;28;20457;-86
2023/04/15 10:03:21;;;;;;;2.00;1.80;;;15.30;45.50;;;;;;5086399;28;20470;-84
2023/04/15 10:05:51;;;;;;;2.03;1.93;;;15.40;44.90;;;;;;5084847;28;20455;-85
2023/04/15 10:08:20;;;;;;;3.10;2.50;;;15.40;45.50;;;;;;5087414;28;20542;-85
2023/04/15 10:10:48;;;;;;;4.20;2.70;;;15.50;45.40;;;;;;5084263;28;20830;-85
2023/04/15 10:13:18;;;;;;;2.00;1.90;;;15.40;46.30;;;;;;5086384;28;20481;-85
2023/04/15 10:15:57;;;;;;;3.20;2.17;;;15.40;46.60;;;;;;5085279;28;20477;-86
2023/04/15 10:18:26;;;;;;;7.00;2.10;;;15.50;46.10;;;;;;5085443;28;20462;-84
2023/04/15 10:20:53;;;;;;;5.50;2.40;;;15.50;46.50;;;;;;5066570;28;20448;-84
2023/04/15 10:23:20;;;;;;;5.20;2.40;;;15.60;47.20;;;;;;5083779;28;20467;-84
2023/04/15 10:25:49;;;;;;;2.53;2.20;;;15.80;47.00;;;;;;5084181;28;20453;-84
2023/04/15 10:28:16;;;;;;;1.87;1.70;;;15.80;46.40;;;;;;5087356;28;20447;-85
2023/04/15 10:30:44;;;;;;;1.50;1.20;;;15.80;44.60;;;;;;5083782;28;20455;-84
2023/04/15 10:33:13;;;;;;;1.37;1.20;;;15.40;41.50;;;;;;5086173;28;20467;-84
2023/04/15 10:35:41;;;;;;;1.10;1.00;;;15.10;43.10;;;;;;5086310;28;20478;-85
2023/04/15 10:38:32;;;;;;;4.93;1.27;;;15.20;43.40;;;;;;5088925;28;20542;-84
2023/04/15 10:41:13;;;;;;;2.23;1.70;;;15.10;44.00;;;;;;5089084;28;20458;-84
2023/04/15 10:43:45;;;;;;;6.60;3.20;;;14.80;44.60;;;;;;5091254;27;20821;-84
2023/04/15 10:46:13;;;;;;;2.77;1.80;;;14.90;45.00;;;;;;5091009;28;20470;-84
2023/04/15 10:48:52;;;;;;;1.00;0.80;;;14.80;44.80;;;;;;5089654;28;20470;-84
2023/04/15 10:51:28;;;;;;;1.30;1.20;;;14.60;45.20;;;;;;5092016;28;20496;-84
2023/04/15 10:53:59;;;;;;;1.93;1.60;;;14.40;45.50;;;;;;5087725;28;20474;-84
2023/04/15 10:56:28;;;;;;;2.40;1.63;;;14.20;45.70;;;;;;5090809;28;20452;-84
2023/04/15 10:58:55;;;;;;;1.17;1.07;;;14.20;47.20;;;;;;5088690;28;20450;-84
2023/04/15 11:01:23;;;;;;;1.50;1.20;;;14.20;46.00;;;;;;5091510;28;20466;-85
2023/04/15 11:03:51;;;;;;;3.83;1.97;;;14.30;46.50;;;;;;5088565;28;20469;-84
2023/04/15 11:06:18;;;;;;;1.70;1.60;;;14.20;46.20;;;;;;5092245;27;20442;-84
2023/04/15 11:08:57;;;;;;;1.70;1.60;;;14.20;46.20;;;;;;5085950;28;20444;-84
2023/04/15 11:12:05;;;;;;;3.33;2.30;;;14.20;46.20;;;;;;5088709;28;20470;-86
2023/04/15 11:14:34;;;;;;;2.73;1.70;;;14.30;46.90;;;;;;5092709;28;20463;-84
2023/04/15 11:17:01;;;;;;;1.43;1.33;;;14.30;46.50;;;;;;5089823;28;20454;-86
2023/04/15 11:19:37;;;;;;;1.80;1.50;;;14.60;47.70;;;;;;5092099;28;20451;-84
2023/04/15 11:22:09;;;;;;;2.80;2.10;;;15.00;46.40;;;;;;5088452;28;20470;-85
2023/04/15 11:24:36;;;;;;;1.40;1.30;;;15.00;46.20;;;;;;5070657;28;20453;-85
2023/04/15 11:27:03;;;;;;;2.40;1.77;;;14.80;45.70;;;;;;5089517;28;20459;-85
2023/04/15 11:29:31;;;;;;;1.23;1.13;;;14.50;46.30;;;;;;5091640;28;20454;-85
2023/04/15 11:32:09;;;;;;;1.40;1.30;;;14.40;46.50;;;;;;5086518;28;20475;-85
2023/04/15 11:34:37;;;;;;;1.93;1.57;;;14.40;46.70;;;;;;5090328;28;20534;-86
2023/04/15 11:37:06;;;;;;;1.50;1.40;;;14.30;48.00;;;;;;5086163;28;20490;-84
2023/04/15 11:39:33;;;;;;;1.20;1.10;;;14.40;49.80;;;;;;5088755;28;20455;-84
2023/04/15 11:42:00;;;;;;;2.10;1.90;;;14.30;50.10;;;;;;5088145;28;20559;-85
2023/04/15 11:44:27;;;;;;;1.73;1.37;;;14.20;51.90;;;;;;5088920;28;20455;-85
2023/04/15 11:46:55;;;;;;;2.60;1.77;;;14.10;52.80;;;;;;5088314;27;20539;-85
2023/04/15 11:49:29;;;;;;;1.40;1.30;;;14.10;54.00;;;;;;5068652;28;20456;-84
2023/04/15 11:51:58;;;;;;;1.47;1.23;;;13.90;53.80;;;;;;5085858;28;20553;-85
2023/04/15 11:54:25;;;;;;;5.90;4.03;;;13.90;53.40;;;;;;5072068;28;20490;-85
2023/04/15 11:56:53;;;;;;;22.93;10.90;;;14.00;54.90;;;;;;5087357;28;20525;-84
2023/04/15 11:59:20;;;;;;;4.60;1.90;;;14.00;56.10;;;;;;5091059;28;20533;-85
2023/04/15 12:01:47;;;;;;;2.37;2.17;;;13.80;54.20;;;;;;5083572;27;20500;-84
2023/04/15 12:04:16;;;;;;;2.67;2.47;;;13.70;54.90;;;;;;5087303;28;20447;-84
2023/04/15 12:06:43;;;;;;;2.93;2.37;;;13.60;55.60;;;;;;5088631;27;20455;-84
2023/04/15 12:09:13;;;;;;;5.27;3.60;;;13.70;56.40;;;;;;5070467;28;21003;-84
2023/04/15 12:11:42;;;;;;;2.23;1.90;;;13.70;56.60;;;;;;5087369;28;20527;-83
2023/04/15 12:14:12;;;;;;;1.93;1.73;;;13.60;55.90;;;;;;5085786;28;20479;-84
2023/04/15 12:16:41;;;;;;;4.00;3.60;;;13.80;56.90;;;;;;5088049;27;20516;-84
2023/04/15 12:19:11;;;;;;;2.50;2.30;;;13.80;55.70;;;;;;5082571;28;20462;-84
2023/04/15 12:21:39;;;;;;;2.80;2.57;;;13.70;55.00;;;;;;5089800;28;21070;-85
2023/04/15 12:24:08;;;;;;;1.80;1.70;;;13.60;55.50;;;;;;5088213;27;20529;-84
2023/04/15 12:26:42;;;;;;;5.40;3.70;;;13.70;56.30;;;;;;5091763;27;20443;-84
2023/04/15 12:29:11;;;;;;;2.20;1.80;;;13.90;55.30;;;;;;5083351;28;20474;-85
2023/04/15 12:31:48;;;;;;;1.80;1.70;;;14.00;54.90;;;;;;5103871;27;20482;-85
2023/04/15 12:34:15;;;;;;;1.90;1.70;;;14.00;54.40;;;;;;5089890;28;20479;-84
2023/04/15 12:36:42;;;;;;;1.63;1.53;;;14.20;55.30;;;;;;5091736;28;20455;-85
2023/04/15 12:39:09;;;;;;;1.47;1.37;;;14.10;55.70;;;;;;5086603;28;20451;-84
2023/04/15 12:41:38;;;;;;;1.83;1.50;;;14.10;54.80;;;;;;5076375;28;20528;-85
2023/04/15 12:44:05;;;;;;;2.20;1.87;;;14.00;54.60;;;;;;5070462;28;20435;-85
2023/04/15 12:46:32;;;;;;;2.10;1.63;;;13.90;55.70;;;;;;5104516;27;20455;-86
2023/04/15 12:48:59;;;;;;;2.27;2.10;;;14.10;55.60;;;;;;5084754;28;20555;-84
2023/04/15 12:51:27;;;;;;;4.63;2.53;;;14.00;55.20;;;;;;5073231;28;20561;-85